Time;durP1;ratioP1;P1;durP2;ratioP2;P2;SDS_P1;SDS_P2;PMS_P1;PMS_P2;Temp;Humidity;BMP_temperature;BMP_pressure;BME280_temperature;BME280_humidity;BME280_pressure;Samples;Min_cycle;Max_cycle;Signal;HPM_P1;HPM_P2
2021/05/12 00:01:41;;;;;;;4.45;2.03;;;;;;;11.12;55.29;99910.22;5048753;28;20526;-21
2021/05/12 00:04:06;;;;;;;4.13;2.03;;;;;;;11.10;55.48;99910.44;5048556;28;20037;-22
2021/05/12 00:06:32;;;;;;;3.60;2.10;;;;;;;10.80;55.84;99913.88;5048738;28;20485;-22
2021/05/12 00:08:57;;;;;;;4.65;1.95;;;;;;;11.33;55.07;99903.56;5048536;28;20528;-22
2021/05/12 00:11:23;;;;;;;3.85;1.88;;;;;;;11.14;55.23;99900.94;5048734;28;20477;-21
2021/05/12 00:13:48;;;;;;;2.97;2.00;;;;;;;10.35;57.64;99897.38;5048514;28;20112;-22
2021/05/12 00:16:14;;;;;;;4.90;2.30;;;;;;;10.68;56.60;99902.34;5048135;28;20057;-22
2021/05/12 00:18:43;;;;;;;3.75;2.00;;;;;;;10.80;56.18;99911.22;5048681;28;20028;-22
2021/05/12 00:21:12;;;;;;;6.70;1.95;;;;;;;10.84;55.81;99875.03;5048093;28;20037;-22
2021/05/12 00:23:57;;;;;;;6.53;2.75;;;;;;;10.96;55.46;99892.97;5048393;28;20037;-22
2021/05/12 00:26:22;;;;;;;4.43;2.50;;;;;;;10.51;57.04;99891.47;5048152;28;20106;-23
2021/05/12 00:28:48;;;;;;;4.80;2.63;;;;;;;10.72;56.37;99889.38;5047984;28;20481;-22
2021/05/12 00:31:13;;;;;;;4.97;2.20;;;;;;;10.91;55.93;99896.31;5048042;28;20104;-23
2021/05/12 00:33:39;;;;;;;3.88;2.10;;;;;;;10.86;56.52;99894.31;5047855;28;20128;-22
2021/05/12 00:36:05;;;;;;;4.40;2.25;;;;;;;10.65;57.16;99897.47;5048304;28;20116;-21
2021/05/12 00:38:30;;;;;;;7.05;3.20;;;;;;;9.94;59.54;99880.94;5048063;28;20199;-21
2021/05/12 00:40:56;;;;;;;5.03;3.50;;;;;;;9.73;60.41;99878.69;5047984;28;20033;-20
2021/05/12 00:43:21;;;;;;;5.25;3.10;;;;;;;9.68;60.57;99881.97;5047963;28;20036;-22
2021/05/12 00:45:48;;;;;;;7.13;3.50;;;;;;;9.57;60.79;99870.19;5047913;28;20029;-22
2021/05/12 00:48:14;;;;;;;5.63;3.70;;;;;;;9.71;60.49;99870.09;5047722;28;20098;-22
2021/05/12 00:50:39;;;;;;;6.82;3.67;;;;;;;9.80;60.60;99879.44;5047468;28;20049;-22
2021/05/12 00:53:05;;;;;;;6.47;4.13;;;;;;;9.73;60.90;99876.03;5047695;28;20033;-22
2021/05/12 00:55:31;;;;;;;5.80;4.10;;;;;;;9.96;60.37;99873.53;5047714;28;20048;-22
2021/05/12 00:57:56;;;;;;;7.63;4.50;;;;;;;9.95;59.99;99877.25;5029630;28;20453;-21
2021/05/12 01:00:23;;;;;;;7.15;4.03;;;;;;;9.74;60.53;99866.97;5047557;28;20473;-22
2021/05/12 01:02:49;;;;;;;6.63;3.45;;;;;;;9.48;61.38;99857.34;5047730;28;20039;-22
2021/05/12 01:05:34;;;;;;;6.35;3.58;;;;;;;10.08;59.28;99843.53;5047633;28;20141;-22
2021/05/12 01:08:03;;;;;;;6.88;4.30;;;;;;;10.27;58.58;99864.59;5047489;28;20052;-22
2021/05/12 01:10:30;;;;;;;5.85;4.20;;;;;;;10.18;59.32;99871.28;5047507;28;20036;-22
2021/05/12 01:12:56;;;;;;;7.05;3.85;;;;;;;10.58;57.65;99859.38;5047495;28;20102;-21
2021/05/12 01:15:21;;;;;;;10.23;3.90;;;;;;;10.91;57.08;99858.13;5047542;28;20127;-21
2021/05/12 01:17:47;;;;;;;6.82;3.80;;;;;;;11.26;55.86;99867.09;5047520;28;20088;-21
2021/05/12 01:20:12;;;;;;;7.57;4.57;;;;;;;11.17;55.61;99864.97;5047231;28;20033;-21
2021/05/12 01:22:39;;;;;;;9.98;6.35;;;;;;;11.31;55.69;99862.91;5047182;28;20047;-20
2021/05/12 01:25:05;;;;;;;8.75;6.78;;;;;;;10.79;57.08;99861.59;5047319;28;20477;-20
2021/05/12 01:27:30;;;;;;;9.60;6.45;;;;;;;11.02;56.30;99860.06;5047563;28;20132;-20
2021/05/12 01:29:56;;;;;;;8.82;6.55;;;;;;;10.62;57.88;99860.56;5047094;28;20087;-19
2021/05/12 01:32:21;;;;;;;11.43;6.60;;;;;;;11.15;56.66;99857.19;5047514;28;20020;-20
2021/05/12 01:34:47;;;;;;;10.07;6.13;;;;;;;10.94;56.71;99863.84;5047135;28;20037;-21
2021/05/12 01:37:12;;;;;;;12.48;7.68;;;;;;;11.06;55.91;99859.38;5047141;28;20039;-21
2021/05/12 01:39:38;;;;;;;12.63;9.05;;;;;;;11.10;55.79;99845.59;5046767;28;20405;-21
2021/05/12 01:42:04;;;;;;;15.05;9.30;;;;;;;11.20;55.26;99830.63;5047121;28;20455;-20
2021/05/12 01:44:29;;;;;;;18.27;9.63;;;;;;;11.41;54.89;99828.47;5046904;28;20063;-21
2021/05/12 01:46:55;;;;;;;14.77;8.57;;;;;;;11.48;55.17;99841.69;5047136;28;20068;-21
2021/05/12 01:49:20;;;;;;;39.95;11.00;;;;;;;11.23;55.46;99838.16;5046718;28;20036;-21
2021/05/12 01:51:46;;;;;;;12.30;9.02;;;;;;;11.25;55.53;99821.94;5047035;28;20091;-21
2021/05/12 01:54:12;;;;;;;13.32;9.07;;;;;;;10.92;56.12;99812.56;5046736;28;20040;-21
2021/05/12 01:56:38;;;;;;;12.63;9.43;;;;;;;10.75;57.25;99828.41;5047132;28;20028;-21
2021/05/12 01:59:05;;;;;;;12.23;8.63;;;;;;;11.13;56.26;99821.91;5047259;28;20166;-21
2021/05/12 02:01:30;;;;;;;11.57;8.05;;;;;;;11.38;55.21;99820.91;5046952;28;20029;-21
2021/05/12 02:03:59;;;;;;;13.20;6.55;;;;;;;11.38;54.55;99808.38;5046931;28;20036;-20
2021/05/12 02:06:25;;;;;;;11.88;6.25;;;;;;;11.17;55.82;99820.41;5045444;28;20021;-21
2021/05/12 02:08:50;;;;;;;10.02;5.85;;;;;;;11.03;56.31;99811.81;5046631;28;20041;-21
2021/05/12 02:11:16;;;;;;;11.98;6.63;;;;;;;11.25;55.77;99820.06;5047094;28;20033;-21
2021/05/12 02:13:41;;;;;;;10.18;5.90;;;;;;;10.67;57.14;99809.25;5047051;28;20076;-20
2021/05/12 02:16:07;;;;;;;9.13;6.30;;;;;;;11.09;55.42;99807.38;5046957;28;20025;-20
2021/05/12 02:18:33;;;;;;;10.20;6.72;;;;;;;11.13;55.31;99810.41;5046480;28;20102;-21
2021/05/12 02:20:58;;;;;;;8.73;5.65;;;;;;;11.24;54.21;99810.44;5045269;28;20055;-21
2021/05/12 02:23:24;;;;;;;11.50;5.53;;;;;;;10.99;54.49;99818.63;5046692;28;20025;-20
2021/05/12 02:25:50;;;;;;;9.23;5.82;;;;;;;10.81;55.77;99816.81;5046830;28;20032;-21
2021/05/12 02:28:16;;;;;;;8.02;4.93;;;;;;;10.46;56.50;99795.31;5046561;28;20078;-22
2021/05/12 02:30:41;;;;;;;9.48;5.00;;;;;;;10.61;56.24;99806.41;5046606;28;20506;-21
2021/05/12 02:33:07;;;;;;;8.15;4.95;;;;;;;10.63;56.08;99795.53;5046464;28;20040;-21
2021/05/12 02:35:33;;;;;;;48.58;6.57;;;;;;;10.71;55.99;99807.75;5046755;28;20031;-21
2021/05/12 02:37:58;;;;;;;18.23;6.13;;;;;;;10.82;56.03;99804.28;5046377;28;20037;-20
2021/05/12 02:40:24;;;;;;;15.55;5.63;;;;;;;10.70;55.80;99787.44;5046367;28;20090;-21
2021/05/12 02:42:51;;;;;;;11.52;5.25;;;;;;;10.85;55.33;99796.66;5046451;28;20040;-20
2021/05/12 02:45:17;;;;;;;10.00;5.28;;;;;;;10.94;55.19;99805.16;5046691;28;20071;-21
2021/05/12 02:47:56;;;;;;;11.05;5.70;;;;;;;10.73;56.30;99803.81;5046397;28;20071;-21
2021/05/12 02:50:23;;;;;;;17.30;7.35;;;;;;;9.95;57.43;99810.66;5046143;28;20139;-21
2021/05/12 02:52:48;;;;;;;18.73;6.10;;;;;;;10.06;57.63;99804.56;5046721;28;20037;-21
2021/05/12 02:55:14;;;;;;;10.88;6.32;;;;;;;10.31;57.05;99802.91;5047345;28;20087;-21
2021/05/12 02:57:39;;;;;;;10.80;5.82;;;;;;;10.24;57.56;99800.31;5049936;28;20028;-20
2021/05/12 03:00:06;;;;;;;10.30;5.63;;;;;;;9.79;58.83;99781.94;5050115;28;20029;-20
2021/05/12 03:02:31;;;;;;;11.80;5.85;;;;;;;10.39;56.96;99782.09;5048342;28;20029;-21
2021/05/12 03:04:57;;;;;;;13.45;6.40;;;;;;;10.65;55.66;99790.78;5049738;28;20028;-21
2021/05/12 03:07:22;;;;;;;11.70;5.63;;;;;;;10.56;55.50;99800.13;5049686;28;20025;-22
2021/05/12 03:09:48;;;;;;;9.15;5.05;;;;;;;9.46;59.32;99799.03;5050016;28;20025;-20
2021/05/12 03:12:13;;;;;;;11.00;5.00;;;;;;;9.34;60.04;99796.25;5049457;28;20025;-21
2021/05/12 03:14:39;;;;;;;17.77;5.93;;;;;;;9.54;59.30;99796.09;5049957;28;20069;-20
2021/05/12 03:17:04;;;;;;;11.32;5.07;;;;;;;9.37;59.71;99785.16;5049785;28;20028;-20
2021/05/12 03:19:30;;;;;;;12.27;6.35;;;;;;;9.03;61.64;99783.78;5049545;28;20025;-20
2021/05/12 03:21:56;;;;;;;14.98;5.95;;;;;;;8.76;62.43;99768.00;5049823;28;20040;-20
2021/05/12 03:24:21;;;;;;;22.33;7.50;;;;;;;9.05;61.62;99782.56;5049675;28;20029;-21
2021/05/12 03:26:47;;;;;;;13.77;6.20;;;;;;;9.15;61.16;99775.94;5049619;28;20087;-21
2021/05/12 03:29:13;;;;;;;13.30;6.70;;;;;;;8.92;62.39;99776.50;5049565;28;20102;-22
2021/05/12 03:31:38;;;;;;;16.80;6.80;;;;;;;9.13;61.93;99784.13;5049578;28;20032;-21
2021/05/12 03:34:04;;;;;;;10.30;6.30;;;;;;;8.75;62.17;99770.91;5049555;28;20040;-21
2021/05/12 03:36:29;;;;;;;20.85;6.82;;;;;;;9.33;61.56;99783.16;5049224;28;20505;-21
2021/05/12 03:38:55;;;;;;;16.05;6.90;;;;;;;9.21;61.81;99781.22;5049243;28;20043;-20
2021/05/12 03:41:20;;;;;;;11.40;5.55;;;;;;;9.11;61.56;99762.25;5047921;28;20032;-21
2021/05/12 03:43:46;;;;;;;11.77;6.93;;;;;;;9.15;62.15;99776.75;5048650;28;20092;-22
2021/05/12 03:46:11;;;;;;;13.43;6.07;;;;;;;8.85;62.56;99750.78;5048849;28;20112;-20
2021/05/12 03:48:37;;;;;;;11.23;5.53;;;;;;;8.88;63.06;99756.69;5049229;28;20378;-21
2021/05/12 03:51:03;;;;;;;11.60;5.20;;;;;;;8.93;62.88;99752.38;5048718;28;20516;-21
2021/05/12 03:53:28;;;;;;;10.35;5.47;;;;;;;9.67;60.71;99781.03;5049328;28;20396;-19
2021/05/12 03:55:54;;;;;;;10.25;5.78;;;;;;;10.39;58.39;99760.75;5049305;28;20033;-21
2021/05/12 03:58:19;;;;;;;12.27;5.45;;;;;;;10.63;57.73;99766.19;5048734;28;20043;-20
2021/05/12 04:00:46;;;;;;;17.25;4.97;;;;;;;10.58;57.71;99758.06;5049042;28;20029;-21
2021/05/12 04:03:12;;;;;;;16.70;6.35;;;;;;;11.11;56.03;99783.94;5048904;28;20028;-21
2021/05/12 04:05:37;;;;;;;13.45;5.60;;;;;;;10.60;58.25;99779.97;5048554;28;20132;-22
2021/05/12 04:08:03;;;;;;;12.00;5.47;;;;;;;10.10;59.32;99785.50;5047412;28;20226;-21
2021/05/12 04:10:29;;;;;;;12.65;6.13;;;;;;;9.98;60.14;99788.88;5048543;28;20033;-21
2021/05/12 04:12:54;;;;;;;8.05;5.20;;;;;;;10.34;59.34;99792.63;5048849;28;20493;-21
2021/05/12 04:15:20;;;;;;;7.68;4.97;;;;;;;10.45;59.90;99794.50;5048488;28;20056;-21
2021/05/12 04:17:45;;;;;;;10.85;5.18;;;;;;;10.67;59.21;99783.38;5048550;28;20060;-20
2021/05/12 04:20:13;;;;;;;8.65;4.95;;;;;;;10.80;58.35;99779.69;5047926;28;20072;-20
2021/05/12 04:22:39;;;;;;;9.33;5.37;;;;;;;10.95;57.92;99779.28;5047363;28;20025;-21
2021/05/12 04:25:06;;;;;;;9.02;5.18;;;;;;;11.30;56.27;99759.84;5047154;28;20524;-21
2021/05/12 04:27:31;;;;;;;11.13;6.35;;;;;;;11.55;55.77;99783.66;5047132;28;20494;-20
2021/05/12 04:29:57;;;;;;;12.13;7.75;;;;;;;11.51;55.75;99791.31;5048259;28;20028;-20
2021/05/12 04:32:22;;;;;;;10.52;6.90;;;;;;;11.25;56.90;99769.34;5048331;28;20040;-21
2021/05/12 04:34:48;;;;;;;12.30;7.55;;;;;;;11.39;55.84;99785.16;5047996;28;20563;-21
2021/05/12 04:37:14;;;;;;;15.30;9.52;;;;;;;11.18;56.98;99790.00;5048400;28;20044;-19
2021/05/12 04:39:40;;;;;;;15.00;9.32;;;;;;;11.17;56.72;99792.91;5048192;28;20025;-21
2021/05/12 04:42:06;;;;;;;13.48;9.48;;;;;;;11.30;56.13;99779.34;5048118;28;20037;-20
2021/05/12 04:44:31;;;;;;;14.00;8.82;;;;;;;11.24;56.37;99781.09;5047941;28;20074;-20
2021/05/12 04:46:57;;;;;;;17.77;8.73;;;;;;;11.45;55.91;99785.03;5046735;28;20152;-20
2021/05/12 04:49:22;;;;;;;12.75;8.18;;;;;;;11.72;54.88;99773.91;5047750;28;20488;-21
2021/05/12 04:51:48;;;;;;;9.93;6.30;;;;;;;11.89;55.05;99792.75;5048049;28;20107;-21
2021/05/12 04:54:13;;;;;;;11.20;5.93;;;;;;;11.66;54.83;99785.50;5047675;28;20422;-21
2021/05/12 04:56:39;;;;;;;10.85;5.63;;;;;;;11.06;56.32;99781.97;5047937;28;20037;-21
2021/05/12 04:59:05;;;;;;;9.95;5.68;;;;;;;11.43;56.21;99770.31;5047715;28;20373;-20
2021/05/12 05:01:31;;;;;;;10.60;6.35;;;;;;;11.73;54.41;99767.53;5047567;28;20028;-21
2021/05/12 05:03:58;;;;;;;8.73;5.53;;;;;;;11.13;56.00;99736.50;5047524;28;20033;-20
2021/05/12 05:06:24;;;;;;;10.23;5.97;;;;;;;11.42;56.42;99747.31;5047514;28;20437;-21
2021/05/12 05:08:49;;;;;;;9.85;5.88;;;;;;;11.98;55.25;99751.25;5046332;28;20790;-24
2021/05/12 05:11:15;;;;;;;8.68;5.40;;;;;;;12.15;54.36;99751.31;5047611;28;20107;-24
2021/05/12 05:13:41;;;;;;;12.65;6.13;;;;;;;12.98;52.68;99761.66;5046188;28;20044;-24
2021/05/12 05:16:06;;;;;;;9.80;6.15;;;;;;;12.67;53.60;99742.41;5047589;28;20033;-24
2021/05/12 05:18:32;;;;;;;10.23;4.90;;;;;;;13.07;51.17;99752.97;5046440;28;20036;-23
2021/05/12 05:20:59;;;;;;;11.07;6.05;;;;;;;13.12;50.63;99746.91;5047644;28;20050;-24
2021/05/12 05:23:24;;;;;;;10.57;5.68;;;;;;;13.30;51.63;99742.38;5047703;28;20883;-23
2021/05/12 05:25:50;;;;;;;10.13;4.53;;;;;;;12.99;51.52;99757.94;5047385;28;20029;-21
2021/05/12 05:28:16;;;;;;;9.65;3.72;;;;;;;13.14;50.16;99752.03;5047355;28;20091;-21
2021/05/12 05:30:42;;;;;;;6.43;3.72;;;;;;;13.13;50.65;99753.88;5047456;28;20025;-22
2021/05/12 05:33:07;;;;;;;5.80;3.53;;;;;;;13.25;49.86;99727.81;5047119;28;20095;-22
2021/05/12 05:35:33;;;;;;;8.40;3.58;;;;;;;13.63;49.66;99755.75;5047285;28;20036;-22
2021/05/12 05:37:58;;;;;;;8.45;4.07;;;;;;;14.00;48.95;99765.88;5047262;28;20037;-22
2021/05/12 05:40:24;;;;;;;6.63;3.80;;;;;;;13.38;50.85;99768.75;5046932;28;20025;-21
2021/05/12 05:43:01;;;;;;;8.63;4.28;;;;;;;13.64;48.27;99762.72;5047171;28;20033;-22
2021/05/12 05:45:27;;;;;;;6.50;3.83;;;;;;;13.06;50.63;99729.94;5047101;28;20025;-21
2021/05/12 05:47:52;;;;;;;6.00;4.30;;;;;;;13.14;52.29;99757.38;5047038;28;20029;-20
2021/05/12 05:50:18;;;;;;;7.95;3.65;;;;;;;13.43;50.24;99745.53;5046844;28;20127;-21
2021/05/12 05:52:43;;;;;;;7.68;4.00;;;;;;;13.46;51.12;99739.72;5047025;28;20029;-22
2021/05/12 05:55:10;;;;;;;7.72;4.70;;;;;;;13.39;50.78;99743.59;5046965;28;20465;-21
2021/05/12 05:57:35;;;;;;;8.63;4.80;;;;;;;13.69;51.16;99727.16;5046817;28;20025;-22
2021/05/12 06:00:01;;;;;;;11.32;5.72;;;;;;;13.75;50.51;99734.22;5046604;28;20033;-21
2021/05/12 06:02:26;;;;;;;8.05;4.75;;;;;;;13.69;51.22;99739.72;5046818;28;20059;-21
2021/05/12 06:04:52;;;;;;;7.00;3.90;;;;;;;13.48;51.33;99717.22;5046656;28;20072;-22
2021/05/12 06:07:17;;;;;;;8.25;4.53;;;;;;;13.23;52.66;99708.53;5047062;28;20489;-22
2021/05/12 06:09:43;;;;;;;8.32;4.05;;;;;;;12.91;52.73;99721.66;5047124;28;20033;-22
2021/05/12 06:12:09;;;;;;;6.88;3.70;;;;;;;13.22;51.62;99720.28;5046768;28;20044;-21
2021/05/12 06:14:34;;;;;;;6.72;4.15;;;;;;;12.92;53.30;99722.50;5046367;28;20033;-22
2021/05/12 06:17:00;;;;;;;10.68;4.80;;;;;;;13.12;52.00;99714.78;5046823;28;20556;-23
2021/05/12 06:19:25;;;;;;;7.20;3.95;;;;;;;12.83;53.92;99709.50;5045775;28;20025;-21
2021/05/12 06:21:51;;;;;;;8.43;3.97;;;;;;;13.24;53.27;99720.88;5046969;28;20029;-21
2021/05/12 06:24:16;;;;;;;8.73;3.78;;;;;;;13.50;51.86;99728.47;5046644;28;20033;-21
2021/05/12 06:26:42;;;;;;;5.95;3.78;;;;;;;12.93;54.25;99721.41;5047114;28;20033;-21
2021/05/12 06:29:07;;;;;;;5.60;3.83;;;;;;;12.93;53.81;99698.13;5046457;28;20021;-23
2021/05/12 06:31:33;;;;;;;5.55;3.80;;;;;;;12.71;55.25;99710.63;5049754;28;20086;-22
2021/05/12 06:34:01;;;;;;;7.63;3.60;;;;;;;13.19;53.71;99710.06;5050746;28;20085;-21
2021/05/12 06:36:26;;;;;;;7.32;3.85;;;;;;;13.10;54.42;99708.88;5050302;28;20116;-21
2021/05/12 06:38:52;;;;;;;6.30;3.70;;;;;;;13.36;54.02;99719.97;5050322;28;20120;-21
2021/05/12 06:41:17;;;;;;;6.40;3.75;;;;;;;13.56;53.61;99706.88;5050573;28;20082;-21
2021/05/12 06:43:43;;;;;;;9.27;4.60;;;;;;;13.63;52.60;99698.69;5050277;28;20051;-22
2021/05/12 06:46:08;;;;;;;9.82;5.18;;;;;;;14.16;51.75;99693.66;5050497;28;20033;-22
2021/05/12 06:48:34;;;;;;;8.23;4.47;;;;;;;14.11;51.04;99691.75;5050135;28;20073;-22
2021/05/12 06:50:59;;;;;;;14.43;8.88;;;;;;;14.26;49.23;99691.91;5050004;28;20069;-22
2021/05/12 06:53:30;;;;;;;8.35;4.03;;;;;;;14.59;50.38;99686.63;5050348;28;20040;-22
2021/05/12 06:55:56;;;;;;;7.35;4.00;;;;;;;14.76;50.00;99691.88;5050180;28;20548;-22
2021/05/12 06:58:22;;;;;;;5.68;3.75;;;;;;;15.36;47.84;99689.88;5049886;28;20072;-21
2021/05/12 07:00:50;;;;;;;8.70;5.00;;;;;;;15.63;47.42;99689.75;5050094;28;20128;-22
2021/05/12 07:03:16;;;;;;;7.03;3.90;;;;;;;15.16;49.26;99677.97;5050111;28;20150;-21
2021/05/12 07:05:42;;;;;;;8.10;3.30;;;;;;;15.44;48.86;99687.50;5049763;28;20446;-22
2021/05/12 07:08:07;;;;;;;5.07;3.45;;;;;;;15.66;47.87;99695.41;5049934;28;20530;-22
2021/05/12 07:10:33;;;;;;;5.20;3.33;;;;;;;14.96;47.88;99704.66;5049562;28;20496;-22
2021/05/12 07:12:58;;;;;;;8.05;3.55;;;;;;;15.07;48.61;99709.03;5050000;28;20072;-20
2021/05/12 07:15:24;;;;;;;6.65;4.10;;;;;;;15.27;46.70;99714.56;5050174;28;20032;-21
2021/05/12 07:17:50;;;;;;;8.27;5.10;;;;;;;15.56;47.68;99705.31;5050207;28;20592;-21
2021/05/12 07:20:16;;;;;;;6.13;3.38;;;;;;;15.27;48.02;99703.00;5049552;28;20029;-22
2021/05/12 07:22:41;;;;;;;5.70;3.33;;;;;;;15.39;47.19;99694.75;5049915;28;20075;-22
2021/05/12 07:25:07;;;;;;;8.77;3.35;;;;;;;15.85;47.12;99681.56;5049539;28;20041;-22
2021/05/12 07:27:33;;;;;;;6.97;3.20;;;;;;;15.88;47.37;99683.72;5049104;28;20033;-22
2021/05/12 07:29:58;;;;;;;6.35;3.45;;;;;;;16.21;45.69;99684.38;5049559;28;20035;-21
2021/05/12 07:32:24;;;;;;;6.72;3.65;;;;;;;16.22;46.50;99686.81;5049459;28;20477;-22
2021/05/12 07:34:52;;;;;;;7.25;3.75;;;;;;;16.44;46.44;99662.34;5049432;28;20378;-22
2021/05/12 07:37:21;;;;;;;7.63;3.47;;;;;;;16.45;45.07;99647.00;5049372;28;20085;-22
2021/05/12 07:39:47;;;;;;;86.15;47.50;;;;;;;16.86;46.11;99669.41;5049137;28;20029;-22
2021/05/12 07:42:13;;;;;;;7.97;3.65;;;;;;;16.52;44.70;99649.44;5048634;28;20036;-22
2021/05/12 07:44:39;;;;;;;8.30;4.00;;;;;;;17.34;43.61;99644.78;5049261;28;20033;-22
2021/05/12 07:47:05;;;;;;;8.43;4.43;;;;;;;17.28;44.55;99624.31;5049088;28;20044;-22
2021/05/12 07:49:31;;;;;;;7.90;3.47;;;;;;;17.47;43.49;99629.94;5047556;28;21926;-21
2021/05/12 07:51:56;;;;;;;5.47;3.60;;;;;;;17.53;43.77;99623.47;5049314;28;20053;-22
2021/05/12 07:54:22;;;;;;;7.85;3.70;;;;;;;17.47;43.93;99629.94;5048705;28;20120;-22
2021/05/12 07:56:47;;;;;;;5.43;3.33;;;;;;;18.01;43.29;99629.16;5048868;28;20065;-21
2021/05/12 07:59:17;;;;;;;6.47;4.65;;;;;;;17.47;44.06;99613.78;5048787;28;20021;-23
2021/05/12 08:01:45;;;;;;;6.18;4.00;;;;;;;17.51;43.89;99622.09;5049046;28;20033;-22
2021/05/12 08:04:11;;;;;;;8.27;4.75;;;;;;;17.46;43.70;99612.16;5048550;28;20021;-20
2021/05/12 08:06:36;;;;;;;10.13;5.32;;;;;;;17.97;42.96;99605.72;5048825;28;20025;-21
2021/05/12 08:09:03;;;;;;;8.38;3.80;;;;;;;17.99;44.36;99598.16;5048628;28;20508;-21
2021/05/12 08:11:28;;;;;;;4.85;3.08;;;;;;;17.75;44.20;99608.78;5048550;28;20466;-21
2021/05/12 08:13:54;;;;;;;6.80;3.45;;;;;;;17.64;44.87;99598.03;5048707;28;20025;-20
2021/05/12 08:16:19;;;;;;;7.20;3.60;;;;;;;18.30;43.28;99592.56;5048401;28;20037;-21
2021/05/12 08:18:45;;;;;;;8.23;3.60;;;;;;;18.78;42.41;99598.91;5048978;28;20137;-21
2021/05/12 08:21:11;;;;;;;13.32;4.28;;;;;;;19.04;42.75;99579.75;5048549;28;20603;-21
2021/05/12 08:23:36;;;;;;;9.40;3.47;;;;;;;19.39;40.76;99585.84;5048388;28;20028;-22
2021/05/12 08:26:02;;;;;;;7.70;3.58;;;;;;;19.70;40.29;99585.47;5046987;28;20028;-21
2021/05/12 08:28:27;;;;;;;4.25;2.65;;;;;;;19.72;40.78;99588.72;5048067;28;20032;-21
2021/05/12 08:30:55;;;;;;;9.95;3.05;;;;;;;19.40;39.06;99573.94;5047168;28;20463;-21
2021/05/12 08:33:21;;;;;;;3.85;2.40;;;;;;;18.84;40.67;99587.00;5046629;28;20400;-21
2021/05/12 08:35:47;;;;;;;10.73;2.90;;;;;;;19.37;40.63;99577.22;5047845;28;20551;-22
2021/05/12 08:38:18;;;;;;;5.10;2.55;;;;;;;19.50;39.34;99579.22;5047673;28;20033;-21
2021/05/12 08:40:44;;;;;;;4.38;2.75;;;;;;;19.61;40.51;99583.38;5048191;28;20040;-21
2021/05/12 08:43:10;;;;;;;5.25;2.50;;;;;;;19.72;40.67;99577.91;5048158;28;20049;-21
2021/05/12 08:45:36;;;;;;;5.90;2.33;;;;;;;19.55;40.61;99568.31;5048043;28;20120;-21
2021/05/12 08:48:05;;;;;;;5.07;2.30;;;;;;;19.45;39.30;99587.38;5046742;28;20115;-21
2021/05/12 08:50:30;;;;;;;5.82;2.55;;;;;;;19.90;38.86;99585.22;5047644;28;20053;-21
2021/05/12 08:52:56;;;;;;;3.53;2.22;;;;;;;19.79;39.24;99562.09;5046309;28;20041;-26
2021/05/12 08:55:21;;;;;;;3.83;2.30;;;;;;;20.13;40.50;99574.59;5046330;28;20035;-21
2021/05/12 08:57:47;;;;;;;4.53;2.40;;;;;;;20.78;37.54;99565.66;5047842;28;20025;-21
2021/05/12 09:00:13;;;;;;;5.15;2.20;;;;;;;20.07;39.32;99580.09;5047256;28;20073;-21
2021/05/12 09:02:39;;;;;;;4.22;2.10;;;;;;;20.50;38.11;99559.38;5047630;28;20497;-21
2021/05/12 09:05:08;;;;;;;7.97;2.47;;;;;;;19.94;38.55;99571.88;5047468;28;20032;-21
2021/05/12 09:07:34;;;;;;;4.53;2.03;;;;;;;20.03;38.04;99576.34;5047464;28;20025;-21
2021/05/12 09:10:00;;;;;;;4.63;2.40;;;;;;;20.28;38.22;99552.69;5047611;28;20036;-21
2021/05/12 09:12:27;;;;;;;6.53;2.80;;;;;;;20.68;38.17;99566.69;5047398;28;20174;-21
2021/05/12 09:14:56;;;;;;;6.63;2.65;;;;;;;20.93;38.36;99551.06;5046255;28;20032;-21
2021/05/12 09:17:32;;;;;;;5.53;2.58;;;;;;;20.93;37.24;99545.63;5047428;28;20051;-21
2021/05/12 09:19:58;;;;;;;4.10;2.60;;;;;;;21.07;37.75;99535.59;5047356;28;20087;-21
2021/05/12 09:22:23;;;;;;;5.50;2.42;;;;;;;21.17;36.22;99540.81;5047323;28;20135;-21
2021/05/12 09:24:50;;;;;;;5.88;2.65;;;;;;;21.74;36.67;99526.06;5046208;28;20033;-21
2021/05/12 09:27:19;;;;;;;5.37;2.70;;;;;;;21.86;37.65;99524.44;5046133;28;20120;-21
2021/05/12 09:29:45;;;;;;;5.13;2.30;;;;;;;22.12;35.47;99520.28;5047702;28;20033;-21
2021/05/12 09:32:15;;;;;;;4.22;2.10;;;;;;;22.73;33.74;99517.94;5047073;28;20477;-21
2021/05/12 09:34:58;;;;;;;3.97;2.00;;;;;;;22.61;34.17;99513.09;5046897;28;20036;-20
2021/05/12 09:37:30;;;;;;;7.00;2.10;;;;;;;21.70;35.35;99487.06;5047193;28;20135;-21
2021/05/12 09:39:56;;;;;;;4.55;2.00;;;;;;;22.23;34.34;99505.34;5047215;28;20039;-21
2021/05/12 09:42:22;;;;;;;6.07;2.10;;;;;;;22.64;33.11;99490.75;5047349;28;20471;-21
2021/05/12 09:44:48;;;;;;;4.90;2.28;;;;;;;22.39;35.05;99495.75;5047230;28;20017;-22
2021/05/12 09:47:29;;;;;;;4.95;2.28;;;;;;;22.35;34.47;99492.03;5045622;28;20841;-21
2021/05/12 09:49:55;;;;;;;4.55;1.80;;;;;;;22.84;33.03;99471.16;5046668;28;20053;-21
2021/05/12 09:52:30;;;;;;;6.18;2.05;;;;;;;23.26;33.34;99471.56;5046809;28;20037;-21
2021/05/12 09:55:03;;;;;;;4.93;1.95;;;;;;;22.49;34.15;99466.69;5047059;28;20108;-21
2021/05/12 09:57:29;;;;;;;4.45;2.10;;;;;;;22.83;34.14;99464.09;5046714;28;20021;-19
2021/05/12 09:59:54;;;;;;;4.68;2.08;;;;;;;23.01;34.00;99469.59;5045934;28;20032;-21
2021/05/12 10:02:20;;;;;;;5.38;2.10;;;;;;;23.40;33.86;99476.09;5045692;28;20097;-20
2021/05/12 10:04:47;;;;;;;3.65;1.80;;;;;;;24.03;33.47;99474.66;5049042;28;20033;-21
2021/05/12 10:07:26;;;;;;;6.10;2.40;;;;;;;24.11;31.87;99467.59;5051238;28;20025;-21
2021/05/12 10:09:53;;;;;;;4.65;1.95;;;;;;;23.29;32.11;99456.53;5050877;28;20060;-21
2021/05/12 10:12:25;;;;;;;4.72;1.98;;;;;;;23.70;32.36;99462.63;5050409;28;20040;-21
2021/05/12 10:14:51;;;;;;;4.40;1.88;;;;;;;24.26;31.18;99456.16;5051094;28;20051;-22
2021/05/12 10:17:18;;;;;;;6.40;2.20;;;;;;;24.60;30.38;99445.47;5050814;28;20515;-21
2021/05/12 10:19:44;;;;;;;5.50;2.23;;;;;;;24.33;29.81;99458.38;5050736;28;20029;-21
2021/05/12 10:22:10;;;;;;;4.40;2.33;;;;;;;24.65;30.29;99448.03;5050486;28;20025;-19
2021/05/12 10:24:41;;;;;;;3.38;1.80;;;;;;;24.98;30.19;99447.38;5049283;28;20408;-21
2021/05/12 10:27:14;;;;;;;14.45;2.38;;;;;;;24.95;29.44;99450.78;5050782;28;20108;-21
2021/05/12 10:29:52;;;;;;;5.47;1.90;;;;;;;24.39;28.57;99435.25;5049637;28;20032;-20
2021/05/12 10:32:19;;;;;;;3.42;1.67;;;;;;;24.01;29.06;99436.03;5049113;28;20520;-21
2021/05/12 10:34:46;;;;;;;4.28;1.92;;;;;;;24.72;29.59;99437.41;5050579;28;20061;-20
2021/05/12 10:37:22;;;;;;;7.20;2.55;;;;;;;25.56;27.79;99437.50;5050329;28;20485;-21
2021/05/12 10:39:59;;;;;;;2.33;1.45;;;;;;;25.91;28.18;99442.69;5050485;28;20039;-20
2021/05/12 10:42:47;;;;;;;4.43;1.60;;;;;;;25.71;27.85;99449.75;5050217;28;20433;-21
2021/05/12 10:45:39;;;;;;;2.50;1.55;;;;;;;26.49;26.02;99444.59;5050304;28;20094;-21
2021/05/12 10:48:05;;;;;;;3.95;1.63;;;;;;;25.97;25.63;99445.97;5049620;28;20072;-21
2021/05/12 10:51:03;;;;;;;4.95;1.60;;;;;;;26.48;24.97;99432.88;5049847;28;20076;-21
2021/05/12 10:53:31;;;;;;;9.20;1.83;;;;;;;26.37;24.46;99405.19;5048484;28;20561;-19
2021/05/12 10:55:56;;;;;;;4.68;1.38;;;;;;;26.37;24.61;99427.03;5048675;28;20037;-20
2021/05/12 10:58:25;;;;;;;6.07;1.40;;;;;;;26.40;24.29;99425.59;5050340;28;20035;-20
2021/05/12 11:00:55;;;;;;;2.88;1.35;;;;;;;27.16;24.42;99413.13;5050177;28;20447;-20
2021/05/12 11:03:21;;;;;;;5.35;1.30;;;;;;;27.01;24.00;99397.41;5050137;28;20051;-21
2021/05/12 11:05:53;;;;;;;2.55;1.38;;;;;;;27.13;25.40;99422.00;5049832;28;20540;-20
2021/05/12 11:08:19;;;;;;;2.08;1.02;;;;;;;27.31;24.80;99419.81;5049563;28;20025;-21
2021/05/12 11:11:12;;;;;;;1.63;1.25;;;;;;;26.79;25.54;99417.88;5049883;28;20033;-21
2021/05/12 11:13:37;;;;;;;3.08;1.23;;;;;;;27.04;25.60;99404.94;5048538;28;20040;-20
2021/05/12 11:16:04;;;;;;;2.45;1.13;;;;;;;27.22;26.61;99395.31;5049074;28;20041;-20
2021/05/12 11:18:35;;;;;;;4.77;1.40;;;;;;;27.71;24.45;99393.56;5049573;28;20057;-21
2021/05/12 11:21:25;;;;;;;2.15;1.20;;;;;;;27.48;24.88;99371.41;5049560;28;20029;-21
2021/05/12 11:24:00;;;;;;;4.55;1.20;;;;;;;27.56;25.69;99382.19;5049843;28;20780;-21
2021/05/12 11:27:13;;;;;;;4.63;1.30;;;;;;;27.51;24.91;99370.72;5049161;28;20401;-20
2021/05/12 11:32:03;;;;;;;6.40;2.35;;;;;;;28.58;25.04;99378.94;5049961;28;20658;-21
2021/05/12 11:34:29;;;;;;;4.43;1.70;;;;;;;27.77;24.66;99392.16;5049010;28;20482;-21